Time;durP1;ratioP1;P1;durP2;ratioP2;P2;SDS_P1;SDS_P2;PMS_P1;PMS_P2;Temp;Humidity;BMP_temperature;BMP_pressure;BME280_temperature;BME280_humidity;BME280_pressure;Samples;Min_cycle;Max_cycle;Signal;HPM_P1;HPM_P2
2023/07/02 08:13:02;;;;;;;;;;;;;;;10.60;100.00;99300.88;4971113;28;19933;-87
2023/07/02 08:15:27;;;;;;;;;;;;;;;10.48;100.00;99301.47;4971061;28;19925;-87
2023/07/02 08:17:54;;;;;;;;;;;;;;;10.48;100.00;99299.72;4953370;28;20346;-86
2023/07/02 08:20:20;;;;;;;;;;;;;;;10.44;100.00;99297.28;4971859;28;19973;-86
2023/07/02 08:22:45;;;;;;;;;;;;;;;10.52;100.00;99306.56;4971361;28;19972;-85
2023/07/02 08:25:10;;;;;;;;;;;;;;;10.51;100.00;99303.97;4970197;28;20365;-84
2023/07/02 08:27:35;;;;;;;;;;;;;;;10.58;100.00;99299.22;4975704;28;20290;-84
2023/07/02 08:30:00;;;;;;;;;;;;;;;10.42;100.00;99305.31;4976394;28;19918;-87
2023/07/02 08:32:26;;;;;;;;;;;;;;;10.44;100.00;99305.22;4973371;28;20354;-86
2023/07/02 08:34:51;;;;;;;;;;;;;;;10.52;100.00;99303.91;4976910;28;19926;-85
2023/07/02 08:37:20;;;;;;;;;;;;;;;10.63;100.00;99302.53;4976398;28;19918;-86
2023/07/02 08:39:45;;;;;;;;;;;;;;;10.57;100.00;99303.66;4974486;28;19922;-85
2023/07/02 08:42:10;;;;;;;;;;;;;;;10.56;100.00;99303.75;4976021;28;19926;-83
2023/07/02 08:44:36;;;;;;;;;;;;;;;10.68;100.00;99314.59;4976148;28;19922;-86
2023/07/02 08:47:01;;;;;;;;;;;;;;;10.86;100.00;99314.56;4974970;28;20389;-85
2023/07/02 08:49:27;;;;;;;;;;;;;;;11.19;100.00;99314.63;4974759;28;19922;-82
2023/07/02 08:51:52;;;;;;;;;;;;;;;11.17;100.00;99321.81;4974997;28;19922;-84
2023/07/02 08:54:18;;;;;;;;;;;;;;;10.94;100.00;99320.34;4972769;28;20297;-82
2023/07/02 08:56:43;;;;;;;;;;;;;;;10.80;100.00;99305.16;4974500;28;20020;-85
2023/07/02 08:59:09;;;;;;;;;;;;;;;10.72;100.00;99310.84;4975752;28;20008;-84
2023/07/02 09:01:47;;;;;;;;;;;;;;;10.89;100.00;99306.47;4974532;28;20383;-81
2023/07/02 09:04:19;;;;;;;;;;;;;;;10.67;100.00;99307.59;4975771;28;19925;-83
2023/07/02 09:06:45;;;;;;;;;;;;;;;10.57;100.00;99306.31;4974587;28;20014;-82
2023/07/02 09:09:11;;;;;;;;;;;;;;;10.81;100.00;99308.66;4974218;28;20013;-86
2023/07/02 09:11:46;;;;;;;;;;;;;;;10.67;100.00;99307.59;4973756;28;19922;-86
2023/07/02 09:14:11;;;;;;;;;;;;;;;10.61;100.00;99314.97;4975696;28;19922;-83
2023/07/02 09:16:40;;;;;;;;;;;;;;;10.58;100.00;99313.34;4975835;28;20056;-83
2023/07/02 09:19:07;;;;;;;;;;;;;;;10.57;100.00;99316.91;4975602;28;19990;-83
2023/07/02 09:21:45;;;;;;;;;;;;;;;10.63;100.00;99318.41;4975575;28;20065;-83
2023/07/02 12:56:21;;;;;;;;;;;;;;;10.62;100.00;99287.53;4908753;29;19935;-80
2023/07/02 12:58:46;;;;;;;;;;;;;;;10.71;100.00;99284.44;4918962;29;19923;-81
2023/07/02 13:01:11;;;;;;;;;;;;;;;10.62;100.00;99284.91;4917407;29;20295;-85
2023/07/02 13:03:37;;;;;;;;;;;;;;;10.60;100.00;99292.06;4918569;29;20027;-81
2023/07/02 13:06:03;;;;;;;;;;;;;;;10.59;100.00;99291.19;4918639;29;19995;-82
2023/07/02 13:08:28;;;;;;;;;;;;;;;10.62;100.00;99290.19;4900147;29;20374;-82
2023/07/02 13:10:53;;;;;;;;;;;;;;;10.78;100.00;99298.22;4918519;29;19942;-93
2023/07/02 13:13:18;;;;;;;;;;;;;;;10.67;100.00;99294.34;4918467;29;19924;-83
2023/07/02 13:15:44;;;;;;;;;;;;;;;10.80;100.00;99296.34;4901558;29;20010;-82
2023/07/02 13:18:09;;;;;;;;;;;;;;;10.77;100.00;99286.78;4918600;29;20382;-89
2023/07/02 13:20:34;;;;;;;;;;;;;;;11.07;100.00;99283.44;4918367;29;19919;-82
2023/07/02 13:23:00;;;;;;;;;;;;;;;10.78;100.00;99292.91;4916127;29;19919;-82
2023/07/02 13:25:25;;;;;;;;;;;;;;;10.71;100.00;99293.22;4917812;29;19950;-84
2023/07/02 13:27:50;;;;;;;;;;;;;;;10.71;100.00;99295.88;4918462;29;19958;-86
2023/07/02 13:30:16;;;;;;;;;;;;;;;10.71;100.00;99295.88;4916952;29;19923;-83
2023/07/02 13:32:41;;;;;;;;;;;;;;;10.66;100.00;99299.72;4918193;29;19962;-84
2023/07/02 13:35:06;;;;;;;;;;;;;;;10.88;100.00;99299.44;4918120;29;19923;-88
2023/07/02 13:37:31;;;;;;;;;;;;;;;10.64;100.00;99299.78;4916783;29;19929;-86
2023/07/02 13:39:57;;;;;;;;;;;;;;;10.71;100.00;99287.09;4916764;29;19919;-87
2023/07/02 13:42:22;;;;;;;;;;;;;;;10.67;100.00;99286.38;4917680;29;20370;-83
2023/07/02 13:44:48;;;;;;;;;;;;;;;10.68;100.00;99295.19;4916812;29;19930;-88
2023/07/02 13:47:13;;;;;;;;;;;;;;;10.69;100.00;99289.81;4917792;29;20000;-87
2023/07/02 13:49:38;;;;;;;;;;;;;;;10.70;100.00;99288.84;4918075;29;20006;-83
2023/07/02 13:52:04;;;;;;;;;;;;;;;10.73;100.00;99287.84;4901213;29;20010;-86
2023/07/02 13:54:29;;;;;;;;;;;;;;;10.62;100.00;99298.16;4922916;29;19923;-83
2023/07/02 13:56:56;;;;;;;;;;;;;;;10.62;100.00;99299.00;4917505;29;19927;-81
2023/07/02 13:59:21;;;;;;;;;;;;;;;10.76;100.00;99294.78;4917598;29;19965;-84
2023/07/02 14:01:47;;;;;;;;;;;;;;;10.65;100.00;99292.69;4917552;29;19962;-82
2023/07/02 14:04:13;;;;;;;;;;;;;;;10.60;100.00;99295.56;4918007;29;20014;-86
2023/07/02 14:06:38;;;;;;;;;;;;;;;10.63;100.00;99292.78;4918189;29;19958;-86
2023/07/02 14:09:04;;;;;;;;;;;;;;;10.70;100.00;99288.84;4916253;29;19958;-86
2023/07/02 14:11:29;;;;;;;;;;;;;;;10.79;100.00;99308.75;4918046;29;19924;-87
2023/07/02 14:13:55;;;;;;;;;;;;;;;10.89;100.00;99301.16;4917712;29;19919;-83
2023/07/02 14:16:21;;;;;;;;;;;;;;;10.83;100.00;99304.13;4917773;29;19975;-82
2023/07/02 14:18:47;;;;;;;;;;;;;;;10.85;100.00;99300.47;4917472;29;19926;-83
2023/07/02 14:21:12;;;;;;;;;;;;;;;11.09;100.00;99298.34;4917414;29;19923;-82
2023/07/02 14:23:37;;;;;;;;;;;;;;;11.11;100.00;99300.91;4915869;29;19919;-83
2023/07/02 14:26:03;;;;;;;;;;;;;;;10.87;100.00;99295.94;4916950;29;20491;-82
2023/07/02 14:28:29;;;;;;;;;;;;;;;11.01;100.00;99289.94;4917101;29;19919;-86
2023/07/02 14:31:04;;;;;;;;;;;;;;;10.76;100.00;99300.09;4917156;29;19923;-81
2023/07/02 14:33:30;;;;;;;;;;;;;;;10.75;100.00;99298.38;4917042;29;19919;-82
2023/07/02 14:35:56;;;;;;;;;;;;;;;10.65;100.00;99304.13;4917188;29;19923;-83
2023/07/02 14:38:22;;;;;;;;;;;;;;;10.82;100.00;99300.63;4915861;29;19923;-86
2023/07/02 14:40:48;;;;;;;;;;;;;;;10.64;100.00;99299.78;4917198;29;20006;-82
2023/07/02 14:43:13;;;;;;;;;;;;;;;10.71;100.00;99301.19;4916858;29;19971;-83
2023/07/02 14:45:49;;;;;;;;;;;;;;;10.74;100.00;99308.13;4917080;29;20014;-84
2023/07/02 14:48:16;;;;;;;;;;;;;;;10.79;100.00;99302.59;4917314;29;19915;-83
2023/07/02 14:50:45;;;;;;;;;;;;;;;10.62;100.00;99306.09;4917092;29;19919;-87
2023/07/02 14:53:10;;;;;;;;;;;;;;;10.67;100.00;99304.94;4915541;29;20184;-87
2023/07/02 14:55:36;;;;;;;;;;;;;;;10.79;100.00;99305.25;4917025;29;19973;-83
2023/07/02 14:58:01;;;;;;;;;;;;;;;10.85;100.00;99305.78;4915220;29;20390;-82
2023/07/02 15:00:26;;;;;;;;;;;;;;;10.68;100.00;99300.50;4916316;29;19930;-85
2023/07/02 15:02:51;;;;;;;;;;;;;;;10.67;100.00;99296.13;4916591;29;20374;-82
2023/07/02 15:05:17;;;;;;;;;;;;;;;10.94;100.00;99296.47;4916670;29;19991;-82
2023/07/02 15:07:42;;;;;;;;;;;;;;;10.78;100.00;99287.63;4916620;29;19959;-82
2023/07/02 15:10:07;;;;;;;;;;;;;;;10.99;100.00;99294.47;4915308;29;20371;-88
2023/07/02 15:12:35;;;;;;;;;;;;;;;10.76;100.00;99300.09;4916601;29;19964;-82
2023/07/02 15:15:00;;;;;;;;;;;;;;;10.72;100.00;99296.72;4917605;29;20009;-86
2023/07/02 15:17:27;;;;;;;;;;;;;;;10.70;100.00;99298.59;4916757;29;20462;-82
2023/07/02 15:19:53;;;;;;;;;;;;;;;10.79;100.00;99308.75;4917492;29;20009;-83
2023/07/02 15:22:18;;;;;;;;;;;;;;;10.72;100.00;99299.38;4916817;29;20010;-82
2023/07/02 15:24:43;;;;;;;;;;;;;;;10.83;100.00;99306.78;4914974;29;19923;-82
2023/07/02 15:27:09;;;;;;;;;;;;;;;10.64;100.00;99307.75;4916184;29;19919;-85
2023/07/02 15:29:34;;;;;;;;;;;;;;;10.68;100.00;99298.69;4916325;29;19977;-82
2023/07/02 15:31:59;;;;;;;;;;;;;;;10.90;100.00;99292.28;4915892;29;19962;-83
2023/07/02 15:34:24;;;;;;;;;;;;;;;10.67;100.00;99291.69;4914957;29;19921;-82
2023/07/02 15:36:49;;;;;;;;;;;;;;;10.75;100.00;99293.06;4915173;29;19923;-82
2023/07/02 15:39:22;;;;;;;;;;;;;;;10.79;100.00;99294.66;4914711;29;19929;-82
2023/07/02 15:41:47;;;;;;;;;;;;;;;10.82;100.00;99294.50;4898957;29;20453;-83
2023/07/02 15:44:12;;;;;;;;;;;;;;;10.71;100.00;99292.38;4916042;29;19923;-81
2023/07/02 15:46:37;;;;;;;;;;;;;;;10.65;100.00;99298.00;4915978;29;19980;-85
2023/07/02 15:49:03;;;;;;;;;;;;;;;10.95;100.00;99292.91;4914861;29;19926;-88
2023/07/02 15:51:28;;;;;;;;;;;;;;;10.71;100.00;99295.88;4916245;29;20367;-82
2023/07/02 15:53:55;;;;;;;;;;;;;;;10.79;100.00;99299.94;4915282;29;19919;-82
2023/07/02 15:56:25;;;;;;;;;;;;;;;10.71;100.00;99298.53;4897148;29;20022;-81
2023/07/02 15:58:51;;;;;;;;;;;;;;;10.79;100.00;99298.13;4917390;29;19923;-81
2023/07/02 16:01:17;;;;;;;;;;;;;;;10.81;100.00;99300.72;4915832;29;19919;-83
2023/07/02 16:03:43;;;;;;;;;;;;;;;10.86;100.00;99296.03;4922179;29;19930;-83
2023/07/02 16:06:11;;;;;;;;;;;;;;;10.97;100.00;99296.31;4916404;29;19923;-82
2023/07/02 16:08:37;;;;;;;;;;;;;;;10.81;100.00;99290.13;4914695;29;19919;-81
2023/07/02 16:11:09;;;;;;;;;;;;;;;10.78;100.00;99290.28;4914391;29;20338;-82
2023/07/02 16:13:36;;;;;;;;;;;;;;;10.71;100.00;99285.28;4915754;29;19926;-82
2023/07/02 16:16:02;;;;;;;;;;;;;;;10.71;100.00;99287.94;4914521;29;19934;-82
2023/07/02 16:18:29;;;;;;;;;;;;;;;10.65;100.00;99285.59;4915419;29;20014;-82
2023/07/02 16:20:55;;;;;;;;;;;;;;;10.66;100.00;99294.41;4916275;29;19998;-84
2023/07/02 16:23:20;;;;;;;;;;;;;;;10.72;100.00;99300.25;4914786;29;19923;-83
2023/07/02 16:25:55;;;;;;;;;;;;;;;10.91;100.00;99293.97;4915458;29;19927;-81
2023/07/02 16:28:21;;;;;;;;;;;;;;;10.76;100.00;99300.09;4898113;29;20335;-81
2023/07/02 16:30:46;;;;;;;;;;;;;;;10.97;100.00;99296.31;4915865;29;19975;-81
2023/07/02 16:33:13;;;;;;;;;;;;;;;10.79;100.00;99297.28;4915660;29;20374;-82
2023/07/02 16:35:38;;;;;;;;;;;;;;;10.83;100.00;99296.19;4915751;29;19919;-82
2023/07/02 16:38:05;;;;;;;;;;;;;;;10.90;100.00;99290.50;4915038;29;19972;-84
2023/07/02 16:40:30;;;;;;;;;;;;;;;10.95;100.00;99282.31;4916009;29;20006;-83
2023/07/02 16:42:55;;;;;;;;;;;;;;;10.80;100.00;99291.03;4915786;29;20014;-82
2023/07/02 16:45:21;;;;;;;;;;;;;;;10.98;100.00;99284.78;4915779;29;20293;-83
2023/07/02 16:47:46;;;;;;;;;;;;;;;10.71;100.00;99281.78;4916904;29;19919;-81
2023/07/02 16:50:11;;;;;;;;;;;;;;;10.68;100.00;99284.59;4902141;29;19923;-82
2023/07/02 16:52:36;;;;;;;;;;;;;;;10.86;100.00;99278.31;4919312;29;19919;-81
2023/07/02 16:55:02;;;;;;;;;;;;;;;10.73;100.00;99275.44;4918837;29;19934;-83
2023/07/02 16:57:27;;;;;;;;;;;;;;;10.68;100.00;99282.78;4920110;29;19967;-82
2023/07/02 16:59:52;;;;;;;;;;;;;;;10.63;100.00;99284.81;4919069;29;19923;-81
2023/07/02 17:02:18;;;;;;;;;;;;;;;10.65;100.00;99285.59;4919428;29;19920;-80
2023/07/02 17:04:43;;;;;;;;;;;;;;;10.67;100.00;99286.38;4919609;29;19931;-82
2023/07/02 17:07:09;;;;;;;;;;;;;;;10.66;100.00;99292.63;4917424;29;20347;-85
2023/07/02 17:09:36;;;;;;;;;;;;;;;10.82;100.00;99294.50;4916926;29;19927;-82
2023/07/02 17:12:03;;;;;;;;;;;;;;;10.65;100.00;99280.28;4917886;29;19919;-80
2023/07/02 17:14:30;;;;;;;;;;;;;;;10.62;100.00;99284.91;4918528;29;19919;-85
2023/07/02 17:16:57;;;;;;;;;;;;;;;10.68;100.00;99288.09;4918237;29;19979;-85
2023/07/02 17:19:27;;;;;;;;;;;;;;;10.62;100.00;99290.19;4918476;29;20399;-83
2023/07/02 17:21:52;;;;;;;;;;;;;;;10.62;100.00;99291.03;4917620;29;19923;-83
2023/07/02 17:24:22;;;;;;;;;;;;;;;10.60;100.00;99289.44;4917298;29;20340;-86
2023/07/02 17:26:48;;;;;;;;;;;;;;;10.57;100.00;99284.28;4917657;29;19927;-82
2023/07/02 17:29:17;;;;;;;;;;;;;;;10.57;100.00;99286.94;4918339;29;19926;-86
2023/07/02 17:31:43;;;;;;;;;;;;;;;10.66;100.00;99287.31;4918066;29;20014;-86
2023/07/02 17:34:08;;;;;;;;;;;;;;;10.64;100.00;99289.19;4918114;29;19946;-83
2023/07/02 17:36:33;;;;;;;;;;;;;;;10.62;100.00;99283.09;4916671;29;19951;-83
2023/07/02 17:38:58;;;;;;;;;;;;;;;10.64;100.00;99281.25;4916807;29;19919;-83
2023/07/02 17:41:24;;;;;;;;;;;;;;;10.60;100.00;99287.63;4917358;29;19954;-83
2023/07/02 17:43:49;;;;;;;;;;;;;;;10.56;100.00;99288.69;4915774;29;19992;-81
2023/07/02 17:46:14;;;;;;;;;;;;;;;10.88;100.00;99284.41;4916937;29;19927;-84
2023/07/02 17:48:39;;;;;;;;;;;;;;;10.66;100.00;99279.38;4917776;29;19984;-83
2023/07/02 17:51:05;;;;;;;;;;;;;;;10.67;100.00;99277.56;4917991;29;19930;-83
2023/07/02 17:53:30;;;;;;;;;;;;;;;10.71;100.00;99276.47;4915755;29;20640;-83
2023/07/02 17:55:55;;;;;;;;;;;;;;;10.56;100.00;99271.97;4916758;29;20005;-83
2023/07/02 17:58:20;;;;;;;;;;;;;;;10.57;100.00;99279.81;4917424;29;20451;-85
2023/07/02 18:00:47;;;;;;;;;;;;;;;10.85;100.00;99279.28;4916957;29;19923;-83
2023/07/02 18:03:13;;;;;;;;;;;;;;;10.72;100.00;99286.13;4917535;29;19923;-89
2023/07/02 18:05:38;;;;;;;;;;;;;;;10.75;100.00;99287.78;4913573;29;19927;-85
2023/07/02 18:08:03;;;;;;;;;;;;;;;10.93;100.00;99273.59;4914661;29;19927;-83
2023/07/02 18:10:28;;;;;;;;;;;;;;;10.75;100.00;99290.44;4913748;29;19923;-83
2023/07/02 18:12:54;;;;;;;;;;;;;;;10.78;100.00;99282.31;4914808;29;20389;-82
2023/07/02 18:15:19;;;;;;;;;;;;;;;10.67;100.00;99286.38;4899204;29;19923;-80
2023/07/02 18:17:45;;;;;;;;;;;;;;;10.78;100.00;99285.81;4917111;29;20405;-82
2023/07/02 18:20:10;;;;;;;;;;;;;;;10.58;100.00;99286.84;4916014;29;19930;-82
2023/07/02 18:22:35;;;;;;;;;;;;;;;10.59;100.00;99283.25;4918528;29;19931;-83
2023/07/02 18:25:01;;;;;;;;;;;;;;;10.80;100.00;99285.72;4913893;29;19927;-88
2023/07/02 18:27:26;;;;;;;;;;;;;;;10.64;100.00;99286.53;4913703;29;19969;-83
2023/07/02 18:29:51;;;;;;;;;;;;;;;10.65;100.00;99284.75;4912878;29;19937;-82
2023/07/02 18:32:17;;;;;;;;;;;;;;;10.65;100.00;99285.59;4914701;29;20334;-85
2023/07/02 18:34:45;;;;;;;;;;;;;;;10.64;100.00;99289.19;4915116;29;19969;-82
2023/07/02 18:37:11;;;;;;;;;;;;;;;10.68;100.00;99285.44;4913997;29;19927;-82
2023/07/02 18:39:37;;;;;;;;;;;;;;;10.68;100.00;99288.09;4914656;29;19970;-83
2023/07/02 18:42:03;;;;;;;;;;;;;;;10.62;100.00;99279.59;4914421;29;19963;-81
2023/07/02 18:44:33;;;;;;;;;;;;;;;10.70;100.00;99286.19;4919575;29;19923;-81
2023/07/02 18:47:05;;;;;;;;;;;;;;;10.60;100.00;99284.97;4911899;29;20726;-83
2023/07/02 18:49:34;;;;;;;;;;;;;;;10.56;100.00;99282.56;4906681;29;19973;-82
2023/07/02 18:52:01;;;;;;;;;;;;;;;10.56;100.00;99280.75;4920240;29;19971;-82
2023/07/02 18:54:26;;;;;;;;;;;;;;;10.64;100.00;99283.91;4911215;29;20291;-83
2023/07/02 18:56:55;;;;;;;;;;;;;;;10.65;100.00;99277.63;4912625;29;19978;-83
2023/07/02 18:59:20;;;;;;;;;;;;;;;10.81;100.00;99274.22;4914509;29;19923;-85
2023/07/02 19:01:45;;;;;;;;;;;;;;;10.69;100.00;99280.97;4916191;29;19919;-83
2023/07/02 19:04:11;;;;;;;;;;;;;;;10.87;100.00;99276.53;4914740;29;19927;-83
2023/07/02 19:06:36;;;;;;;;;;;;;;;10.71;100.00;99271.19;4915675;29;19923;-84
2023/07/02 19:09:01;;;;;;;;;;;;;;;10.64;100.00;99272.41;4913043;29;19923;-87
2023/07/02 19:11:28;;;;;;;;;;;;;;;10.74;100.00;99273.69;4913101;29;20386;-89
2023/07/02 19:13:53;;;;;;;;;;;;;;;10.77;100.00;99270.00;4912939;29;19927;-81
2023/07/02 19:16:19;;;;;;;;;;;;;;;10.61;100.00;99276.09;4915045;29;19983;-87
2023/07/02 19:18:44;;;;;;;;;;;;;;;10.63;100.00;99274.22;4911270;29;19965;-82
2023/07/02 19:21:13;;;;;;;;;;;;;;;10.64;100.00;99283.03;4913020;29;19920;-84
2023/07/02 19:23:38;;;;;;;;;;;;;;;10.66;100.00;99275.88;4911637;29;19986;-82
2023/07/02 19:26:04;;;;;;;;;;;;;;;10.62;100.00;99282.25;4915525;29;19919;-83
2023/07/02 19:28:29;;;;;;;;;;;;;;;10.69;100.00;99280.97;4898230;29;19966;-82
2023/07/02 19:30:56;;;;;;;;;;;;;;;10.84;100.00;99282.84;4914532;29;19919;-82
2023/07/02 19:33:22;;;;;;;;;;;;;;;10.65;100.00;99285.59;4913894;29;19923;-84
2023/07/02 19:35:47;;;;;;;;;;;;;;;10.70;100.00;99280.91;4893363;29;19919;-83
2023/07/02 19:38:12;;;;;;;;;;;;;;;10.78;100.00;99283.16;4911178;29;19923;-82
2023/07/02 19:40:37;;;;;;;;;;;;;;;10.80;100.00;99286.63;4915100;29;20406;-82
2023/07/02 19:43:03;;;;;;;;;;;;;;;10.93;100.00;99283.31;4923578;29;19927;-82
2023/07/02 19:45:28;;;;;;;;;;;;;;;10.81;100.00;99287.47;4915747;29;20017;-81
2023/07/02 19:47:53;;;;;;;;;;;;;;;10.74;100.00;99292.22;4915795;29;19930;-82
2023/07/02 19:50:18;;;;;;;;;;;;;;;10.80;100.00;99291.03;4922408;29;19920;-82
2023/07/02 19:52:44;;;;;;;;;;;;;;;10.76;100.00;99293.00;4915862;29;19971;-82
2023/07/02 19:55:16;;;;;;;;;;;;;;;10.75;100.00;99295.72;4914434;29;19919;-83
2023/07/02 19:57:41;;;;;;;;;;;;;;;10.75;100.00;99293.06;4923167;29;19971;-84
2023/07/02 20:00:08;;;;;;;;;;;;;;;10.85;100.00;99300.47;4915759;29;19927;-85
2023/07/02 20:02:35;;;;;;;;;;;;;;;10.68;100.00;99303.97;4915592;29;19995;-83
2023/07/02 20:05:01;;;;;;;;;;;;;;;10.63;100.00;99307.81;4915456;29;19926;-82
2023/07/02 20:07:30;;;;;;;;;;;;;;;10.70;100.00;99307.41;4913571;29;19931;-84
2023/07/02 20:09:55;;;;;;;;;;;;;;;10.71;100.00;99298.53;4909952;29;19947;-82
2023/07/02 20:12:22;;;;;;;;;;;;;;;10.71;100.00;99303.81;4914607;29;19951;-86
2023/07/02 20:14:48;;;;;;;;;;;;;;;10.77;100.00;99312.38;4915066;29;19934;-82
2023/07/02 20:17:15;;;;;;;;;;;;;;;10.84;100.00;99308.50;4913747;29;19927;-83
2023/07/02 20:19:43;;;;;;;;;;;;;;;10.77;100.00;99317.69;4914538;29;20014;-83
2023/07/02 20:22:09;;;;;;;;;;;;;;;10.87;100.00;99314.50;4915581;29;19970;-83
2023/07/02 20:24:35;;;;;;;;;;;;;;;10.80;100.00;99313.13;4917609;29;19993;-82
2023/07/02 20:27:00;;;;;;;;;;;;;;;10.82;100.00;99315.69;4918148;29;19923;-83
2023/07/02 20:29:25;;;;;;;;;;;;;;;10.76;100.00;99310.69;4919322;29;20339;-83
2023/07/02 20:31:51;;;;;;;;;;;;;;;10.69;100.00;99311.00;4917818;29;19923;-84
2023/07/02 20:34:17;;;;;;;;;;;;;;;10.71;100.00;99314.44;4917486;29;19927;-84
2023/07/02 20:36:43;;;;;;;;;;;;;;;10.66;100.00;99308.50;4918091;29;19919;-84
2023/07/02 20:39:09;;;;;;;;;;;;;;;10.62;100.00;99314.88;4916426;29;20339;-82
2023/07/02 20:41:34;;;;;;;;;;;;;;;10.69;100.00;99308.34;4901975;29;19954;-83
2023/07/02 20:44:00;;;;;;;;;;;;;;;10.67;100.00;99315.53;4919008;29;19974;-84
2023/07/02 20:46:26;;;;;;;;;;;;;;;10.70;100.00;99319.81;4919220;29;19919;-85
2023/07/02 20:48:51;;;;;;;;;;;;;;;10.75;100.00;99315.13;4900388;29;19950;-88
2023/07/02 20:51:16;;;;;;;;;;;;;;;10.67;100.00;99312.88;4917868;29;20347;-84
2023/07/02 20:53:42;;;;;;;;;;;;;;;10.73;100.00;99317.84;4917800;29;19920;-83
2023/07/02 20:56:07;;;;;;;;;;;;;;;10.75;100.00;99314.28;4918631;29;19927;-82
2023/07/02 20:58:32;;;;;;;;;;;;;;;10.76;100.00;99322.16;4916088;29;20018;-87
2023/07/02 21:01:05;;;;;;;;;;;;;;;10.78;100.00;99322.91;4917080;29;19923;-82
2023/07/02 21:03:30;;;;;;;;;;;;;;;10.69;100.00;99324.25;4922015;29;19938;-82
2023/07/02 21:05:58;;;;;;;;;;;;;;;10.76;100.00;99322.16;4917398;29;19923;-89
2023/07/02 21:08:23;;;;;;;;;;;;;;;10.69;100.00;99326.91;4917454;29;19923;-82
2023/07/02 21:10:48;;;;;;;;;;;;;;;10.61;100.00;99323.78;4925724;29;19934;-82
2023/07/02 21:13:14;;;;;;;;;;;;;;;10.69;100.00;99326.03;4917766;29;19930;-82
2023/07/02 21:15:39;;;;;;;;;;;;;;;10.86;100.00;99328.69;4917686;29;19942;-82
2023/07/02 21:18:04;;;;;;;;;;;;;;;10.72;100.00;99329.41;4924423;29;20022;-84
2023/07/02 21:20:29;;;;;;;;;;;;;;;10.76;100.00;99330.09;4916649;29;20292;-83
2023/07/02 21:22:55;;;;;;;;;;;;;;;10.66;100.00;99324.41;4917475;29;19927;-82
2023/07/02 21:25:20;;;;;;;;;;;;;;;10.72;100.00;99326.75;4914587;29;20014;-82
2023/07/02 21:27:46;;;;;;;;;;;;;;;10.71;100.00;99325.03;4915648;29;19923;-82
2023/07/02 21:30:11;;;;;;;;;;;;;;;10.63;100.00;99321.06;4915431;29;19927;-85
2023/07/02 21:32:37;;;;;;;;;;;;;;;10.78;100.00;99322.06;4916115;29;20381;-87
2023/07/02 21:35:02;;;;;;;;;;;;;;;10.70;100.00;99328.59;4914724;29;19927;-82
2023/07/02 21:37:27;;;;;;;;;;;;;;;10.63;100.00;99329.84;4917632;29;20422;-82
2023/07/02 21:39:52;;;;;;;;;;;;;;;10.61;100.00;99330.84;4914529;29;19938;-81
2023/07/02 21:42:18;;;;;;;;;;;;;;;10.61;100.00;99323.78;4916811;29;19920;-81
2023/07/02 21:44:43;;;;;;;;;;;;;;;10.65;100.00;99327.97;4916444;29;20029;-81
2023/07/02 21:47:08;;;;;;;;;;;;;;;10.64;100.00;99328.94;4924275;29;20271;-81
2023/07/02 21:49:33;;;;;;;;;;;;;;;10.68;100.00;99325.19;4916749;29;19996;-83
2023/07/02 21:51:59;;;;;;;;;;;;;;;10.68;100.00;99334.94;4915375;29;19925;-82
2023/07/02 21:54:24;;;;;;;;;;;;;;;10.91;100.00;99333.75;4897793;29;20272;-82
2023/07/02 21:56:50;;;;;;;;;;;;;;;10.70;100.00;99333.91;4915595;29;19934;-82
2023/07/02 21:59:15;;;;;;;;;;;;;;;10.75;100.00;99335.47;4914940;29;19927;-82
2023/07/02 22:01:41;;;;;;;;;;;;;;;10.70;100.00;99333.91;4915864;29;19925;-85
2023/07/02 22:04:06;;;;;;;;;;;;;;;10.70;100.00;99338.34;4916261;29;19930;-93
2023/07/02 22:06:31;;;;;;;;;;;;;;;10.72;100.00;99329.41;4916842;29;19923;-84
2023/07/02 22:08:57;;;;;;;;;;;;;;;10.67;100.00;99334.09;4915046;29;20017;-84
2023/07/02 22:11:24;;;;;;;;;;;;;;;10.70;100.00;99338.34;4917428;29;20275;-88
2023/07/02 22:13:50;;;;;;;;;;;;;;;10.71;100.00;99334.78;4916911;29;20382;-84
2023/07/02 22:16:15;;;;;;;;;;;;;;;10.69;100.00;99326.91;4916841;29;19976;-82
2023/07/02 22:18:41;;;;;;;;;;;;;;;10.77;100.00;99328.28;4917403;29;19919;-83
2023/07/02 22:21:06;;;;;;;;;;;;;;;10.67;100.00;99327.91;4917325;29;19929;-82
2023/07/02 22:23:32;;;;;;;;;;;;;;;10.75;100.00;99335.47;4914639;29;19949;-82
2023/07/02 22:25:58;;;;;;;;;;;;;;;10.75;100.00;99332.81;4915200;29;19942;-81
2023/07/02 22:28:23;;;;;;;;;;;;;;;10.79;100.00;99337.03;4917048;29;20259;-82
2023/07/02 22:30:49;;;;;;;;;;;;;;;10.63;100.00;99331.66;4914954;29;19931;-82
2023/07/02 22:33:14;;;;;;;;;;;;;;;10.63;100.00;99329.84;4915781;29;19927;-82
2023/07/02 22:35:39;;;;;;;;;;;;;;;10.63;100.00;99326.38;4917002;29;19973;-82
2023/07/02 22:38:04;;;;;;;;;;;;;;;10.57;100.00;99330.16;4916392;29;19927;-81
2023/07/02 22:40:30;;;;;;;;;;;;;;;10.60;100.00;99324.72;4915762;29;20382;-82
2023/07/02 22:42:55;;;;;;;;;;;;;;;10.64;100.00;99328.06;4915472;29;20390;-82
2023/07/02 22:45:21;;;;;;;;;;;;;;;10.63;100.00;99327.22;4916383;29;19930;-82
2023/07/02 22:47:46;;;;;;;;;;;;;;;10.64;100.00;99328.94;4916595;29;20382;-82
2023/07/02 22:50:13;;;;;;;;;;;;;;;10.76;100.00;99337.19;4916688;29;19962;-82
2023/07/02 22:52:38;;;;;;;;;;;;;;;10.65;100.00;99330.63;4916242;29;19931;-81
2023/07/02 22:55:06;;;;;;;;;;;;;;;10.71;100.00;99327.69;4914858;29;20419;-83
2023/07/02 22:57:33;;;;;;;;;;;;;;;10.74;100.00;99329.31;4914556;29;19931;-81
2023/07/02 22:59:59;;;;;;;;;;;;;;;10.67;100.00;99328.78;4915280;29;19923;-82
2023/07/02 23:02:25;;;;;;;;;;;;;;;10.59;100.00;99325.63;4916491;29;19923;-82
2023/07/02 23:04:50;;;;;;;;;;;;;;;10.81;100.00;99321.91;4916940;29;19925;-87
2023/07/02 23:07:15;;;;;;;;;;;;;;;10.62;100.00;99328.13;4916333;29;19927;-86
2023/07/02 23:09:41;;;;;;;;;;;;;;;10.64;100.00;99326.28;4914559;29;20395;-88
2023/07/02 23:12:06;;;;;;;;;;;;;;;10.69;100.00;99324.25;4915250;29;19927;-86
2023/07/02 23:14:31;;;;;;;;;;;;;;;10.77;100.00;99321.22;4915089;29;19923;-81
2023/07/02 23:16:57;;;;;;;;;;;;;;;10.72;100.00;99318.81;4915873;29;19920;-82
2023/07/02 23:19:22;;;;;;;;;;;;;;;10.63;100.00;99316.63;4916305;29;20556;-82
2023/07/02 23:21:48;;;;;;;;;;;;;;;10.52;100.00;99319.78;4916164;29;19919;-82
2023/07/02 23:24:13;;;;;;;;;;;;;;;10.58;100.00;99312.47;4914802;29;19923;-82
2023/07/02 23:26:40;;;;;;;;;;;;;;;10.62;100.00;99311.38;4914065;29;21251;-87
